sensor_id;sensor_type;location;lat;lon;timestamp;P1;durP1;ratioP1;P2;durP2;ratioP2
63653;SDS011;49809;47.418;19.080;2024-03-02T00:00:18;28.27;;;15.88;;
63653;SDS011;49809;47.418;19.080;2024-03-02T00:03:38;28.35;;;15.77;;
63653;SDS011;49809;47.418;19.080;2024-03-02T00:07:09;33.15;;;15.88;;
63653;SDS011;49809;47.418;19.080;2024-03-02T00:10:42;32.00;;;17.08;;
63653;SDS011;49809;47.418;19.080;2024-03-02T00:14:29;32.15;;;16.67;;
63653;SDS011;49809;47.418;19.080;2024-03-02T00:18:58;31.77;;;16.00;;
63653;SDS011;49809;47.418;19.080;2024-03-02T00:22:09;28.80;;;15.48;;
63653;SDS011;49809;47.418;19.080;2024-03-02T00:25:55;33.17;;;15.55;;
63653;SDS011;49809;47.418;19.080;2024-03-02T00:29:43;30.73;;;15.57;;
63653;SDS011;49809;47.418;19.080;2024-03-02T00:33:09;28.45;;;15.15;;
63653;SDS011;49809;47.418;19.080;2024-03-02T00:36:58;30.88;;;15.35;;
63653;SDS011;49809;47.418;19.080;2024-03-02T00:40:07;32.08;;;15.27;;
63653;SDS011;49809;47.418;19.080;2024-03-02T00:43:57;30.95;;;15.60;;
63653;SDS011;49809;47.418;19.080;2024-03-02T00:47:17;28.98;;;16.12;;
63653;SDS011;49809;47.418;19.080;2024-03-02T00:51:02;28.70;;;16.10;;
63653;SDS011;49809;47.418;19.080;2024-03-02T00:55:14;31.27;;;15.40;;
63653;SDS011;49809;47.418;19.080;2024-03-02T00:58:19;29.92;;;15.93;;
63653;SDS011;49809;47.418;19.080;2024-03-02T01:01:44;28.65;;;14.95;;
63653;SDS011;49809;47.418;19.080;2024-03-02T01:09:14;29.60;;;15.35;;
63653;SDS011;49809;47.418;19.080;2024-03-02T01:12:57;30.45;;;16.05;;
63653;SDS011;49809;47.418;19.080;2024-03-02T01:16:22;28.83;;;15.80;;
63653;SDS011;49809;47.418;19.080;2024-03-02T01:20:07;27.33;;;15.35;;
63653;SDS011;49809;47.418;19.080;2024-03-02T01:23:37;31.02;;;15.93;;
63653;SDS011;49809;47.418;19.080;2024-03-02T01:27:02;28.23;;;15.13;;
63653;SDS011;49809;47.418;19.080;2024-03-02T01:30:35;28.87;;;15.23;;
63653;SDS011;49809;47.418;19.080;2024-03-02T01:34:14;30.45;;;15.43;;
63653;SDS011;49809;47.418;19.080;2024-03-02T01:37:38;30.48;;;15.27;;
63653;SDS011;49809;47.418;19.080;2024-03-02T01:41:21;28.92;;;15.07;;
63653;SDS011;49809;47.418;19.080;2024-03-02T01:44:58;30.92;;;15.02;;
63653;SDS011;49809;47.418;19.080;2024-03-02T01:48:32;29.50;;;15.82;;
63653;SDS011;49809;47.418;19.080;2024-03-02T01:52:24;27.87;;;15.02;;
63653;SDS011;49809;47.418;19.080;2024-03-02T01:56:16;26.83;;;14.30;;
63653;SDS011;49809;47.418;19.080;2024-03-02T01:59:41;34.22;;;14.90;;
63653;SDS011;49809;47.418;19.080;2024-03-02T02:03:26;26.52;;;15.00;;
63653;SDS011;49809;47.418;19.080;2024-03-02T02:07:00;26.20;;;14.10;;
63653;SDS011;49809;47.418;19.080;2024-03-02T02:10:40;30.08;;;15.45;;
63653;SDS011;49809;47.418;19.080;2024-03-02T02:14:27;28.15;;;14.60;;
63653;SDS011;49809;47.418;19.080;2024-03-02T02:18:19;32.53;;;14.95;;
63653;SDS011;49809;47.418;19.080;2024-03-02T02:25:34;29.33;;;14.77;;
63653;SDS011;49809;47.418;19.080;2024-03-02T02:29:16;27.95;;;13.50;;
63653;SDS011;49809;47.418;19.080;2024-03-02T02:32:40;28.90;;;13.73;;
63653;SDS011;49809;47.418;19.080;2024-03-02T02:36:44;28.25;;;14.13;;
63653;SDS011;49809;47.418;19.080;2024-03-02T02:40:31;28.67;;;14.02;;
63653;SDS011;49809;47.418;19.080;2024-03-02T02:48:08;26.58;;;13.60;;
63653;SDS011;49809;47.418;19.080;2024-03-02T02:52:22;24.45;;;13.73;;
63653;SDS011;49809;47.418;19.080;2024-03-02T02:55:56;28.65;;;13.57;;
63653;SDS011;49809;47.418;19.080;2024-03-02T02:59:06;31.42;;;13.55;;
63653;SDS011;49809;47.418;19.080;2024-03-02T03:02:54;27.48;;;14.23;;
63653;SDS011;49809;47.418;19.080;2024-03-02T03:06:43;27.73;;;13.52;;
63653;SDS011;49809;47.418;19.080;2024-03-02T03:10:30;29.20;;;14.68;;
63653;SDS011;49809;47.418;19.080;2024-03-02T03:14:17;29.73;;;14.90;;
63653;SDS011;49809;47.418;19.080;2024-03-02T03:17:50;27.25;;;14.25;;
63653;SDS011;49809;47.418;19.080;2024-03-02T03:21:56;27.80;;;14.30;;
63653;SDS011;49809;47.418;19.080;2024-03-02T03:25:01;28.12;;;14.05;;
63653;SDS011;49809;47.418;19.080;2024-03-02T03:28:46;27.40;;;13.98;;
63653;SDS011;49809;47.418;19.080;2024-03-02T03:32:15;35.50;;;15.10;;
63653;SDS011;49809;47.418;19.080;2024-03-02T03:36:24;29.33;;;15.23;;
63653;SDS011;49809;47.418;19.080;2024-03-02T03:39:47;22.48;;;12.70;;
63653;SDS011;49809;47.418;19.080;2024-03-02T03:43:49;26.83;;;14.27;;
63653;SDS011;49809;47.418;19.080;2024-03-02T03:47:22;24.77;;;13.50;;
63653;SDS011;49809;47.418;19.080;2024-03-02T03:50:58;28.87;;;13.15;;
63653;SDS011;49809;47.418;19.080;2024-03-02T03:58:04;29.92;;;14.52;;
63653;SDS011;49809;47.418;19.080;2024-03-02T04:01:50;24.85;;;13.62;;
63653;SDS011;49809;47.418;19.080;2024-03-02T04:04:55;25.20;;;13.82;;
63653;SDS011;49809;47.418;19.080;2024-03-02T04:08:19;29.05;;;13.77;;
63653;SDS011;49809;47.418;19.080;2024-03-02T04:12:21;26.23;;;13.50;;
63653;SDS011;49809;47.418;19.080;2024-03-02T04:15:59;29.63;;;14.90;;
63653;SDS011;49809;47.418;19.080;2024-03-02T04:23:12;29.12;;;13.85;;
63653;SDS011;49809;47.418;19.080;2024-03-02T04:30:14;30.70;;;15.60;;
63653;SDS011;49809;47.418;19.080;2024-03-02T04:33:24;31.05;;;15.32;;
63653;SDS011;49809;47.418;19.080;2024-03-02T04:37:14;27.58;;;14.68;;
63653;SDS011;49809;47.418;19.080;2024-03-02T04:41:05;31.58;;;14.52;;
63653;SDS011;49809;47.418;19.080;2024-03-02T04:44:33;33.15;;;15.55;;
63653;SDS011;49809;47.418;19.080;2024-03-02T04:48:02;30.05;;;14.35;;
63653;SDS011;49809;47.418;19.080;2024-03-02T04:51:38;34.00;;;16.70;;
63653;SDS011;49809;47.418;19.080;2024-03-02T04:55:20;29.48;;;15.30;;
63653;SDS011;49809;47.418;19.080;2024-03-02T04:59:18;32.47;;;15.50;;
63653;SDS011;49809;47.418;19.080;2024-03-02T05:02:33;31.87;;;15.98;;
63653;SDS011;49809;47.418;19.080;2024-03-02T05:08:43;32.65;;;14.75;;
63653;SDS011;49809;47.418;19.080;2024-03-02T05:12:37;37.95;;;16.77;;
63653;SDS011;49809;47.418;19.080;2024-03-02T05:16:27;32.05;;;16.52;;
63653;SDS011;49809;47.418;19.080;2024-03-02T05:19:57;37.00;;;17.48;;
63653;SDS011;49809;47.418;19.080;2024-03-02T05:23:01;38.53;;;17.60;;
63653;SDS011;49809;47.418;19.080;2024-03-02T05:26:27;37.38;;;16.80;;
63653;SDS011;49809;47.418;19.080;2024-03-02T05:29:34;32.42;;;16.23;;
63653;SDS011;49809;47.418;19.080;2024-03-02T05:32:40;32.08;;;16.00;;
63653;SDS011;49809;47.418;19.080;2024-03-02T05:36:06;36.92;;;16.58;;
63653;SDS011;49809;47.418;19.080;2024-03-02T05:39:15;34.80;;;15.88;;
63653;SDS011;49809;47.418;19.080;2024-03-02T05:42:23;34.97;;;16.58;;
63653;SDS011;49809;47.418;19.080;2024-03-02T05:45:51;33.95;;;16.00;;
63653;SDS011;49809;47.418;19.080;2024-03-02T05:48:57;38.78;;;18.58;;
63653;SDS011;49809;47.418;19.080;2024-03-02T05:52:06;37.15;;;18.48;;
63653;SDS011;49809;47.418;19.080;2024-03-02T05:55:10;36.15;;;18.08;;
63653;SDS011;49809;47.418;19.080;2024-03-02T05:58:34;33.78;;;17.45;;
63653;SDS011;49809;47.418;19.080;2024-03-02T06:02:00;36.03;;;17.45;;
63653;SDS011;49809;47.418;19.080;2024-03-02T06:05:04;35.55;;;17.90;;
63653;SDS011;49809;47.418;19.080;2024-03-02T06:08:15;40.60;;;18.58;;
63653;SDS011;49809;47.418;19.080;2024-03-02T06:11:19;34.78;;;17.48;;
63653;SDS011;49809;47.418;19.080;2024-03-02T06:14:22;39.15;;;17.95;;
63653;SDS011;49809;47.418;19.080;2024-03-02T06:17:31;33.08;;;17.40;;
63653;SDS011;49809;47.418;19.080;2024-03-02T06:20:38;34.78;;;17.45;;
63653;SDS011;49809;47.418;19.080;2024-03-02T06:24:04;34.70;;;17.05;;
63653;SDS011;49809;47.418;19.080;2024-03-02T06:27:11;35.17;;;17.05;;
63653;SDS011;49809;47.418;19.080;2024-03-02T06:34:13;32.73;;;16.37;;
63653;SDS011;49809;47.418;19.080;2024-03-02T06:38:17;30.83;;;16.05;;
63653;SDS011;49809;47.418;19.080;2024-03-02T06:42:05;33.38;;;17.83;;
63653;SDS011;49809;47.418;19.080;2024-03-02T06:45:31;31.48;;;16.33;;
63653;SDS011;49809;47.418;19.080;2024-03-02T06:49:00;36.50;;;17.02;;
63653;SDS011;49809;47.418;19.080;2024-03-02T06:52:12;36.28;;;17.85;;
63653;SDS011;49809;47.418;19.080;2024-03-02T06:55:56;37.35;;;18.02;;
63653;SDS011;49809;47.418;19.080;2024-03-02T06:59:22;32.97;;;17.73;;
63653;SDS011;49809;47.418;19.080;2024-03-02T07:02:27;34.95;;;17.48;;
63653;SDS011;49809;47.418;19.080;2024-03-02T07:05:37;34.00;;;16.67;;
63653;SDS011;49809;47.418;19.080;2024-03-02T07:09:04;34.33;;;17.23;;
63653;SDS011;49809;47.418;19.080;2024-03-02T07:12:14;34.40;;;17.23;;
63653;SDS011;49809;47.418;19.080;2024-03-02T07:15:18;39.03;;;18.60;;
63653;SDS011;49809;47.418;19.080;2024-03-02T07:19:02;38.08;;;18.25;;
63653;SDS011;49809;47.418;19.080;2024-03-02T07:22:48;38.15;;;17.23;;
63653;SDS011;49809;47.418;19.080;2024-03-02T07:26:19;37.05;;;17.55;;
63653;SDS011;49809;47.418;19.080;2024-03-02T07:30:07;32.70;;;16.48;;
63653;SDS011;49809;47.418;19.080;2024-03-02T07:33:14;30.85;;;16.20;;
63653;SDS011;49809;47.418;19.080;2024-03-02T07:36:20;33.08;;;16.20;;
63653;SDS011;49809;47.418;19.080;2024-03-02T07:39:28;32.97;;;17.05;;
63653;SDS011;49809;47.418;19.080;2024-03-02T07:42:58;32.83;;;16.58;;
63653;SDS011;49809;47.418;19.080;2024-03-02T07:46:02;34.60;;;16.67;;
63653;SDS011;49809;47.418;19.080;2024-03-02T07:49:06;32.88;;;16.87;;
63653;SDS011;49809;47.418;19.080;2024-03-02T07:52:11;31.98;;;16.27;;
63653;SDS011;49809;47.418;19.080;2024-03-02T07:55:15;32.38;;;16.40;;
63653;SDS011;49809;47.418;19.080;2024-03-02T07:59:06;27.27;;;14.70;;
63653;SDS011;49809;47.418;19.080;2024-03-02T08:05:26;30.27;;;15.75;;
63653;SDS011;49809;47.418;19.080;2024-03-02T08:08:53;32.90;;;16.50;;
63653;SDS011;49809;47.418;19.080;2024-03-02T08:12:30;34.28;;;16.73;;
63653;SDS011;49809;47.418;19.080;2024-03-02T08:16:37;31.70;;;16.10;;
63653;SDS011;49809;47.418;19.080;2024-03-02T08:20:01;35.33;;;17.62;;
63653;SDS011;49809;47.418;19.080;2024-03-02T08:23:53;34.67;;;17.65;;
63653;SDS011;49809;47.418;19.080;2024-03-02T08:27:30;37.22;;;16.67;;
63653;SDS011;49809;47.418;19.080;2024-03-02T08:31:39;32.75;;;17.35;;
63653;SDS011;49809;47.418;19.080;2024-03-02T08:35:19;31.20;;;15.90;;
63653;SDS011;49809;47.418;19.080;2024-03-02T08:39:07;30.25;;;16.62;;
63653;SDS011;49809;47.418;19.080;2024-03-02T08:42:41;31.33;;;14.98;;
63653;SDS011;49809;47.418;19.080;2024-03-02T08:46:16;26.80;;;13.75;;
63653;SDS011;49809;47.418;19.080;2024-03-02T08:49:50;25.27;;;14.73;;
63653;SDS011;49809;47.418;19.080;2024-03-02T08:53:24;29.08;;;15.30;;
63653;SDS011;49809;47.418;19.080;2024-03-02T08:56:27;28.65;;;14.75;;
63653;SDS011;49809;47.418;19.080;2024-03-02T09:00:07;30.70;;;16.23;;
63653;SDS011;49809;47.418;19.080;2024-03-02T09:03:34;31.60;;;15.55;;
63653;SDS011;49809;47.418;19.080;2024-03-02T09:07:14;29.55;;;15.18;;
63653;SDS011;49809;47.418;19.080;2024-03-02T09:10:48;26.95;;;13.57;;
63653;SDS011;49809;47.418;19.080;2024-03-02T09:14:30;27.15;;;15.07;;
63653;SDS011;49809;47.418;19.080;2024-03-02T09:17:56;24.23;;;13.35;;
63653;SDS011;49809;47.418;19.080;2024-03-02T09:21:43;27.33;;;13.68;;
63653;SDS011;49809;47.418;19.080;2024-03-02T09:25:10;28.48;;;14.55;;
63653;SDS011;49809;47.418;19.080;2024-03-02T09:28:34;24.90;;;14.15;;
63653;SDS011;49809;47.418;19.080;2024-03-02T09:31:42;25.73;;;13.98;;
63653;SDS011;49809;47.418;19.080;2024-03-02T09:34:49;27.10;;;13.85;;
63653;SDS011;49809;47.418;19.080;2024-03-02T09:38:02;25.70;;;13.85;;
63653;SDS011;49809;47.418;19.080;2024-03-02T09:41:26;24.30;;;14.05;;
63653;SDS011;49809;47.418;19.080;2024-03-02T09:44:50;24.42;;;13.85;;
63653;SDS011;49809;47.418;19.080;2024-03-02T09:48:19;25.75;;;13.70;;
63653;SDS011;49809;47.418;19.080;2024-03-02T09:51:33;30.00;;;14.50;;
63653;SDS011;49809;47.418;19.080;2024-03-02T09:54:39;24.75;;;13.55;;
63653;SDS011;49809;47.418;19.080;2024-03-02T09:57:45;26.27;;;13.25;;
63653;SDS011;49809;47.418;19.080;2024-03-02T10:01:28;27.13;;;13.32;;
63653;SDS011;49809;47.418;19.080;2024-03-02T10:05:27;24.08;;;13.35;;
63653;SDS011;49809;47.418;19.080;2024-03-02T10:08:51;20.35;;;12.13;;
63653;SDS011;49809;47.418;19.080;2024-03-02T10:12:46;19.95;;;11.20;;
63653;SDS011;49809;47.418;19.080;2024-03-02T10:19:54;22.92;;;12.35;;
63653;SDS011;49809;47.418;19.080;2024-03-02T10:23:22;17.95;;;10.73;;
63653;SDS011;49809;47.418;19.080;2024-03-02T10:26:56;19.08;;;11.50;;
63653;SDS011;49809;47.418;19.080;2024-03-02T10:30:10;21.15;;;12.45;;
63653;SDS011;49809;47.418;19.080;2024-03-02T10:33:34;21.75;;;11.88;;
63653;SDS011;49809;47.418;19.080;2024-03-02T10:37:02;17.42;;;10.57;;
63653;SDS011;49809;47.418;19.080;2024-03-02T10:40:28;21.50;;;12.20;;
63653;SDS011;49809;47.418;19.080;2024-03-02T10:43:36;18.92;;;11.43;;
63653;SDS011;49809;47.418;19.080;2024-03-02T10:47:45;19.02;;;10.70;;
63653;SDS011;49809;47.418;19.080;2024-03-02T10:50:56;19.00;;;10.20;;
63653;SDS011;49809;47.418;19.080;2024-03-02T10:54:05;16.00;;;9.82;;
63653;SDS011;49809;47.418;19.080;2024-03-02T11:01:19;15.23;;;8.88;;
63653;SDS011;49809;47.418;19.080;2024-03-02T11:04:43;13.88;;;8.82;;
63653;SDS011;49809;47.418;19.080;2024-03-02T11:07:53;14.40;;;9.40;;
63653;SDS011;49809;47.418;19.080;2024-03-02T11:11:29;13.13;;;8.23;;
63653;SDS011;49809;47.418;19.080;2024-03-02T11:14:56;15.18;;;9.63;;
63653;SDS011;49809;47.418;19.080;2024-03-02T11:18:21;13.40;;;8.60;;
63653;SDS011;49809;47.418;19.080;2024-03-02T11:21:51;14.18;;;8.63;;
63653;SDS011;49809;47.418;19.080;2024-03-02T11:25:24;15.63;;;9.45;;
63653;SDS011;49809;47.418;19.080;2024-03-02T11:28:36;16.05;;;9.80;;
63653;SDS011;49809;47.418;19.080;2024-03-02T11:31:59;14.15;;;8.93;;
63653;SDS011;49809;47.418;19.080;2024-03-02T11:35:13;14.93;;;9.35;;
63653;SDS011;49809;47.418;19.080;2024-03-02T11:38:43;14.60;;;8.77;;
63653;SDS011;49809;47.418;19.080;2024-03-02T11:42:32;15.93;;;9.38;;
63653;SDS011;49809;47.418;19.080;2024-03-02T11:46:10;14.65;;;9.02;;
63653;SDS011;49809;47.418;19.080;2024-03-02T11:49:55;12.88;;;8.48;;
63653;SDS011;49809;47.418;19.080;2024-03-02T11:53:31;15.23;;;8.68;;
63653;SDS011;49809;47.418;19.080;2024-03-02T11:56:38;13.40;;;8.10;;
63653;SDS011;49809;47.418;19.080;2024-03-02T12:00:02;13.73;;;8.43;;
63653;SDS011;49809;47.418;19.080;2024-03-02T12:03:09;13.55;;;8.20;;
63653;SDS011;49809;47.418;19.080;2024-03-02T12:06:17;14.20;;;8.77;;
63653;SDS011;49809;47.418;19.080;2024-03-02T12:09:28;12.18;;;7.97;;
63653;SDS011;49809;47.418;19.080;2024-03-02T12:12:32;14.57;;;8.88;;
63653;SDS011;49809;47.418;19.080;2024-03-02T12:15:37;15.35;;;8.52;;
63653;SDS011;49809;47.418;19.080;2024-03-02T12:18:41;15.45;;;9.30;;
63653;SDS011;49809;47.418;19.080;2024-03-02T12:21:50;14.98;;;9.30;;
63653;SDS011;49809;47.418;19.080;2024-03-02T12:24:56;18.45;;;10.20;;
63653;SDS011;49809;47.418;19.080;2024-03-02T12:28:02;17.73;;;9.70;;
63653;SDS011;49809;47.418;19.080;2024-03-02T12:31:30;17.20;;;9.93;;
63653;SDS011;49809;47.418;19.080;2024-03-02T12:34:37;16.70;;;10.23;;
63653;SDS011;49809;47.418;19.080;2024-03-02T12:37:47;18.00;;;10.10;;
63653;SDS011;49809;47.418;19.080;2024-03-02T12:40:55;15.50;;;9.52;;
63653;SDS011;49809;47.418;19.080;2024-03-02T12:43:58;19.50;;;11.07;;
63653;SDS011;49809;47.418;19.080;2024-03-02T12:47:02;17.55;;;10.20;;
63653;SDS011;49809;47.418;19.080;2024-03-02T12:50:06;16.87;;;9.18;;
63653;SDS011;49809;47.418;19.080;2024-03-02T12:53:14;22.65;;;12.48;;
63653;SDS011;49809;47.418;19.080;2024-03-02T12:56:24;22.40;;;12.48;;
63653;SDS011;49809;47.418;19.080;2024-03-02T12:59:33;20.00;;;10.20;;
63653;SDS011;49809;47.418;19.080;2024-03-02T13:02:56;16.92;;;10.27;;
63653;SDS011;49809;47.418;19.080;2024-03-02T13:06:06;16.92;;;9.95;;
63653;SDS011;49809;47.418;19.080;2024-03-02T13:09:13;14.25;;;9.02;;
63653;SDS011;49809;47.418;19.080;2024-03-02T13:12:19;15.25;;;8.80;;
63653;SDS011;49809;47.418;19.080;2024-03-02T13:15:25;22.27;;;12.43;;
63653;SDS011;49809;47.418;19.080;2024-03-02T13:21:47;26.35;;;12.73;;
63653;SDS011;49809;47.418;19.080;2024-03-02T13:24:54;17.67;;;9.38;;
63653;SDS011;49809;47.418;19.080;2024-03-02T13:28:02;20.55;;;10.40;;
63653;SDS011;49809;47.418;19.080;2024-03-02T13:31:06;27.20;;;11.52;;
63653;SDS011;49809;47.418;19.080;2024-03-02T13:34:09;24.12;;;11.18;;
63653;SDS011;49809;47.418;19.080;2024-03-02T13:37:16;28.17;;;13.02;;
63653;SDS011;49809;47.418;19.080;2024-03-02T13:40:20;25.12;;;12.93;;
63653;SDS011;49809;47.418;19.080;2024-03-02T13:43:24;21.83;;;11.27;;
63653;SDS011;49809;47.418;19.080;2024-03-02T13:46:28;25.23;;;11.68;;
63653;SDS011;49809;47.418;19.080;2024-03-02T13:49:33;17.83;;;9.90;;
63653;SDS011;49809;47.418;19.080;2024-03-02T13:52:41;18.50;;;8.80;;
63653;SDS011;49809;47.418;19.080;2024-03-02T13:56:04;20.55;;;9.18;;
63653;SDS011;49809;47.418;19.080;2024-03-02T14:02:37;18.27;;;9.73;;
63653;SDS011;49809;47.418;19.080;2024-03-02T14:05:47;20.73;;;9.98;;
63653;SDS011;49809;47.418;19.080;2024-03-02T14:08:55;19.73;;;10.27;;
63653;SDS011;49809;47.418;19.080;2024-03-02T14:11:58;22.33;;;10.90;;
63653;SDS011;49809;47.418;19.080;2024-03-02T14:15:03;21.92;;;9.82;;
63653;SDS011;49809;47.418;19.080;2024-03-02T14:18:07;34.75;;;16.55;;
63653;SDS011;49809;47.418;19.080;2024-03-02T14:21:12;30.45;;;14.15;;
63653;SDS011;49809;47.418;19.080;2024-03-02T14:24:40;25.73;;;13.18;;
63653;SDS011;49809;47.418;19.080;2024-03-02T14:28:17;24.08;;;12.37;;
63653;SDS011;49809;47.418;19.080;2024-03-02T14:35:10;26.23;;;13.73;;
63653;SDS011;49809;47.418;19.080;2024-03-02T14:38:38;40.78;;;19.37;;
63653;SDS011;49809;47.418;19.080;2024-03-02T14:42:02;28.30;;;13.70;;
63653;SDS011;49809;47.418;19.080;2024-03-02T14:45:08;37.80;;;16.25;;
63653;SDS011;49809;47.418;19.080;2024-03-02T14:48:16;31.75;;;15.60;;
63653;SDS011;49809;47.418;19.080;2024-03-02T14:51:27;34.25;;;15.60;;
63653;SDS011;49809;47.418;19.080;2024-03-02T14:54:37;30.48;;;14.73;;
63653;SDS011;49809;47.418;19.080;2024-03-02T14:58:09;30.58;;;13.38;;
63653;SDS011;49809;47.418;19.080;2024-03-02T15:01:34;29.63;;;13.82;;
63653;SDS011;49809;47.418;19.080;2024-03-02T15:04:38;28.87;;;13.88;;
63653;SDS011;49809;47.418;19.080;2024-03-02T15:07:43;34.70;;;15.98;;
63653;SDS011;49809;47.418;19.080;2024-03-02T15:10:46;32.47;;;14.25;;
63653;SDS011;49809;47.418;19.080;2024-03-02T15:14:11;30.37;;;14.43;;
63653;SDS011;49809;47.418;19.080;2024-03-02T15:17:18;38.17;;;15.13;;
63653;SDS011;49809;47.418;19.080;2024-03-02T15:20:44;34.47;;;15.60;;
63653;SDS011;49809;47.418;19.080;2024-03-02T15:23:51;30.60;;;13.90;;
63653;SDS011;49809;47.418;19.080;2024-03-02T15:26:56;34.88;;;15.30;;
63653;SDS011;49809;47.418;19.080;2024-03-02T15:30:00;32.83;;;15.82;;
63653;SDS011;49809;47.418;19.080;2024-03-02T15:33:04;31.20;;;15.07;;
63653;SDS011;49809;47.418;19.080;2024-03-02T15:36:06;32.00;;;14.95;;
63653;SDS011;49809;47.418;19.080;2024-03-02T15:39:15;33.65;;;15.20;;
63653;SDS011;49809;47.418;19.080;2024-03-02T15:42:19;34.67;;;15.27;;
63653;SDS011;49809;47.418;19.080;2024-03-02T15:45:27;36.63;;;15.75;;
63653;SDS011;49809;47.418;19.080;2024-03-02T15:48:37;32.53;;;15.30;;
63653;SDS011;49809;47.418;19.080;2024-03-02T15:52:10;30.92;;;15.48;;
63653;SDS011;49809;47.418;19.080;2024-03-02T15:55:38;34.70;;;17.02;;
63653;SDS011;49809;47.418;19.080;2024-03-02T15:59:11;36.58;;;16.25;;
63653;SDS011;49809;47.418;19.080;2024-03-02T16:02:19;36.30;;;16.10;;
63653;SDS011;49809;47.418;19.080;2024-03-02T16:05:25;36.03;;;16.42;;
63653;SDS011;49809;47.418;19.080;2024-03-02T16:08:49;32.63;;;16.33;;
63653;SDS011;49809;47.418;19.080;2024-03-02T16:12:15;33.60;;;16.00;;
63653;SDS011;49809;47.418;19.080;2024-03-02T16:15:38;40.15;;;16.50;;
63653;SDS011;49809;47.418;19.080;2024-03-02T16:19:05;39.07;;;16.93;;
63653;SDS011;49809;47.418;19.080;2024-03-02T16:22:26;35.38;;;15.65;;
63653;SDS011;49809;47.418;19.080;2024-03-02T16:28:43;35.83;;;15.10;;
63653;SDS011;49809;47.418;19.080;2024-03-02T16:31:48;30.48;;;15.70;;
63653;SDS011;49809;47.418;19.080;2024-03-02T16:38:51;37.97;;;15.50;;
63653;SDS011;49809;47.418;19.080;2024-03-02T16:46:32;36.80;;;16.10;;
63653;SDS011;49809;47.418;19.080;2024-03-02T16:49:36;33.35;;;15.38;;
63653;SDS011;49809;47.418;19.080;2024-03-02T16:52:41;35.10;;;15.00;;
63653;SDS011;49809;47.418;19.080;2024-03-02T16:55:47;32.90;;;15.73;;
63653;SDS011;49809;47.418;19.080;2024-03-02T16:59:01;34.75;;;15.80;;
63653;SDS011;49809;47.418;19.080;2024-03-02T17:02:24;31.65;;;15.00;;
63653;SDS011;49809;47.418;19.080;2024-03-02T17:06:10;26.87;;;13.60;;
63653;SDS011;49809;47.418;19.080;2024-03-02T17:09:35;26.48;;;12.98;;
63653;SDS011;49809;47.418;19.080;2024-03-02T17:12:40;22.42;;;12.95;;
63653;SDS011;49809;47.418;19.080;2024-03-02T17:20:43;26.20;;;13.35;;
63653;SDS011;49809;47.418;19.080;2024-03-02T17:28:41;21.37;;;11.85;;
63653;SDS011;49809;47.418;19.080;2024-03-02T17:32:08;23.45;;;11.38;;
63653;SDS011;49809;47.418;19.080;2024-03-02T17:35:31;19.77;;;11.75;;
63653;SDS011;49809;47.418;19.080;2024-03-02T17:39:32;24.33;;;12.57;;
63653;SDS011;49809;47.418;19.080;2024-03-02T17:42:59;21.10;;;11.90;;
63653;SDS011;49809;47.418;19.080;2024-03-02T17:46:48;26.87;;;12.32;;
63653;SDS011;49809;47.418;19.080;2024-03-02T17:49:52;22.27;;;12.63;;
63653;SDS011;49809;47.418;19.080;2024-03-02T17:53:16;23.10;;;12.52;;
63653;SDS011;49809;47.418;19.080;2024-03-02T17:56:26;22.85;;;11.90;;
63653;SDS011;49809;47.418;19.080;2024-03-02T18:00:14;22.20;;;12.02;;
63653;SDS011;49809;47.418;19.080;2024-03-02T18:03:45;23.02;;;13.32;;
63653;SDS011;49809;47.418;19.080;2024-03-02T18:07:31;24.77;;;14.10;;
63653;SDS011;49809;47.418;19.080;2024-03-02T18:11:08;24.42;;;13.30;;
63653;SDS011;49809;47.418;19.080;2024-03-02T18:14:15;27.37;;;14.00;;
63653;SDS011;49809;47.418;19.080;2024-03-02T18:17:33;21.73;;;13.13;;
63653;SDS011;49809;47.418;19.080;2024-03-02T18:20:58;24.98;;;13.88;;
63653;SDS011;49809;47.418;19.080;2024-03-02T18:24:21;23.00;;;13.10;;
63653;SDS011;49809;47.418;19.080;2024-03-02T18:28:28;25.73;;;15.00;;
63653;SDS011;49809;47.418;19.080;2024-03-02T18:32:02;26.85;;;14.55;;
63653;SDS011;49809;47.418;19.080;2024-03-02T18:35:09;26.30;;;14.30;;
63653;SDS011;49809;47.418;19.080;2024-03-02T18:38:39;21.52;;;13.35;;
63653;SDS011;49809;47.418;19.080;2024-03-02T18:42:09;21.50;;;12.23;;
63653;SDS011;49809;47.418;19.080;2024-03-02T18:45:18;20.55;;;11.82;;
63653;SDS011;49809;47.418;19.080;2024-03-02T18:48:26;22.98;;;12.20;;
63653;SDS011;49809;47.418;19.080;2024-03-02T18:51:32;21.47;;;11.93;;
63653;SDS011;49809;47.418;19.080;2024-03-02T18:59:05;20.70;;;12.15;;
63653;SDS011;49809;47.418;19.080;2024-03-02T19:02:48;20.17;;;11.40;;
63653;SDS011;49809;47.418;19.080;2024-03-02T19:06:27;20.00;;;10.90;;
63653;SDS011;49809;47.418;19.080;2024-03-02T19:09:57;19.67;;;11.07;;
63653;SDS011;49809;47.418;19.080;2024-03-02T19:13:36;14.30;;;9.70;;
63653;SDS011;49809;47.418;19.080;2024-03-02T19:17:23;20.27;;;10.57;;
63653;SDS011;49809;47.418;19.080;2024-03-02T19:21:04;16.40;;;9.75;;
63653;SDS011;49809;47.418;19.080;2024-03-02T19:24:37;21.10;;;10.82;;
63653;SDS011;49809;47.418;19.080;2024-03-02T19:28:13;17.37;;;10.43;;
63653;SDS011;49809;47.418;19.080;2024-03-02T19:31:45;17.55;;;9.88;;
63653;SDS011;49809;47.418;19.080;2024-03-02T19:35:23;20.25;;;10.93;;
63653;SDS011;49809;47.418;19.080;2024-03-02T19:38:48;18.58;;;11.50;;
63653;SDS011;49809;47.418;19.080;2024-03-02T19:42:26;17.08;;;10.45;;
63653;SDS011;49809;47.418;19.080;2024-03-02T19:45:54;18.02;;;10.05;;
63653;SDS011;49809;47.418;19.080;2024-03-02T19:49:33;20.17;;;9.60;;
63653;SDS011;49809;47.418;19.080;2024-03-02T19:53:13;18.80;;;10.75;;
63653;SDS011;49809;47.418;19.080;2024-03-02T19:56:27;15.35;;;9.68;;
63653;SDS011;49809;47.418;19.080;2024-03-02T20:00:07;15.52;;;9.35;;
63653;SDS011;49809;47.418;19.080;2024-03-02T20:03:34;16.27;;;9.90;;
63653;SDS011;49809;47.418;19.080;2024-03-02T20:07:21;23.20;;;11.60;;
63653;SDS011;49809;47.418;19.080;2024-03-02T20:11:05;17.05;;;10.48;;
63653;SDS011;49809;47.418;19.080;2024-03-02T20:14:54;19.92;;;10.75;;
63653;SDS011;49809;47.418;19.080;2024-03-02T20:18:47;16.65;;;9.68;;
63653;SDS011;49809;47.418;19.080;2024-03-02T20:22:11;18.67;;;9.73;;
63653;SDS011;49809;47.418;19.080;2024-03-02T20:25:44;19.37;;;11.20;;
63653;SDS011;49809;47.418;19.080;2024-03-02T20:29:18;20.00;;;10.93;;
63653;SDS011;49809;47.418;19.080;2024-03-02T20:32:54;18.42;;;10.68;;
63653;SDS011;49809;47.418;19.080;2024-03-02T20:36:31;18.83;;;9.85;;
63653;SDS011;49809;47.418;19.080;2024-03-02T20:40:08;17.92;;;9.15;;
63653;SDS011;49809;47.418;19.080;2024-03-02T20:43:24;19.10;;;9.57;;
63653;SDS011;49809;47.418;19.080;2024-03-02T20:47:01;18.70;;;9.70;;
63653;SDS011;49809;47.418;19.080;2024-03-02T20:50:52;16.62;;;9.70;;
63653;SDS011;49809;47.418;19.080;2024-03-02T20:54:16;15.68;;;9.35;;
63653;SDS011;49809;47.418;19.080;2024-03-02T20:58:03;17.52;;;10.25;;
63653;SDS011;49809;47.418;19.080;2024-03-02T21:01:10;16.10;;;10.18;;